sensor_id;sensor_type;location;lat;lon;timestamp;P1;durP1;ratioP1;P2;durP2;ratioP2
75837;SDS011;64480;52.040;113.502;2023-04-01T00:01:12;8.02;;;1.73;;
75837;SDS011;64480;52.040;113.502;2023-04-01T00:04:17;10.75;;;1.60;;
75837;SDS011;64480;52.040;113.502;2023-04-01T00:07:20;6.55;;;2.30;;
75837;SDS011;64480;52.040;113.502;2023-04-01T00:10:24;9.38;;;2.70;;
75837;SDS011;64480;52.040;113.502;2023-04-01T00:13:28;7.93;;;1.45;;
75837;SDS011;64480;52.040;113.502;2023-04-01T00:16:31;15.73;;;2.60;;
75837;SDS011;64480;52.040;113.502;2023-04-01T00:19:35;4.75;;;1.70;;
75837;SDS011;64480;52.040;113.502;2023-04-01T00:22:39;6.30;;;2.00;;
75837;SDS011;64480;52.040;113.502;2023-04-01T00:25:43;15.48;;;2.70;;
75837;SDS011;64480;52.040;113.502;2023-04-01T00:28:49;9.38;;;1.80;;
75837;SDS011;64480;52.040;113.502;2023-04-01T00:31:53;4.45;;;1.45;;
75837;SDS011;64480;52.040;113.502;2023-04-01T00:34:56;5.55;;;1.88;;
75837;SDS011;64480;52.040;113.502;2023-04-01T00:38:02;7.43;;;3.17;;
75837;SDS011;64480;52.040;113.502;2023-04-01T00:41:06;14.90;;;3.13;;
75837;SDS011;64480;52.040;113.502;2023-04-01T00:44:23;21.10;;;3.05;;
75837;SDS011;64480;52.040;113.502;2023-04-01T00:47:30;4.57;;;1.08;;
75837;SDS011;64480;52.040;113.502;2023-04-01T00:50:34;14.68;;;1.90;;
75837;SDS011;64480;52.040;113.502;2023-04-01T00:53:49;9.88;;;1.65;;
75837;SDS011;64480;52.040;113.502;2023-04-01T01:00:18;7.93;;;1.40;;
75837;SDS011;64480;52.040;113.502;2023-04-01T01:03:22;10.02;;;2.28;;
75837;SDS011;64480;52.040;113.502;2023-04-01T01:16:44;3.10;;;0.88;;
75837;SDS011;64480;52.040;113.502;2023-04-01T01:27:04;5.03;;;1.83;;
75837;SDS011;64480;52.040;113.502;2023-04-01T01:30:53;9.10;;;2.08;;
75837;SDS011;64480;52.040;113.502;2023-04-01T01:37:10;4.70;;;1.40;;
75837;SDS011;64480;52.040;113.502;2023-04-01T01:40:16;8.15;;;1.20;;
75837;SDS011;64480;52.040;113.502;2023-04-01T01:43:22;5.30;;;1.27;;
75837;SDS011;64480;52.040;113.502;2023-04-01T01:46:28;4.22;;;0.93;;
75837;SDS011;64480;52.040;113.502;2023-04-01T01:49:33;5.03;;;1.42;;
75837;SDS011;64480;52.040;113.502;2023-04-01T01:52:39;21.88;;;2.67;;
75837;SDS011;64480;52.040;113.502;2023-04-01T01:55:44;4.40;;;0.95;;
75837;SDS011;64480;52.040;113.502;2023-04-01T01:58:51;8.15;;;1.00;;
75837;SDS011;64480;52.040;113.502;2023-04-01T02:02:00;9.38;;;2.20;;
75837;SDS011;64480;52.040;113.502;2023-04-01T02:05:10;4.80;;;1.92;;
75837;SDS011;64480;52.040;113.502;2023-04-01T02:08:28;3.67;;;0.98;;
75837;SDS011;64480;52.040;113.502;2023-04-01T02:11:39;6.25;;;1.40;;
75837;SDS011;64480;52.040;113.502;2023-04-01T02:15:03;6.15;;;1.50;;
75837;SDS011;64480;52.040;113.502;2023-04-01T02:18:11;13.75;;;2.17;;
75837;SDS011;64480;52.040;113.502;2023-04-01T02:21:17;15.55;;;2.17;;
75837;SDS011;64480;52.040;113.502;2023-04-01T02:24:23;5.07;;;1.65;;
75837;SDS011;64480;52.040;113.502;2023-04-01T02:27:30;12.40;;;2.65;;
75837;SDS011;64480;52.040;113.502;2023-04-01T02:30:36;13.13;;;2.63;;
75837;SDS011;64480;52.040;113.502;2023-04-01T02:33:42;7.13;;;1.52;;
75837;SDS011;64480;52.040;113.502;2023-04-01T02:36:47;4.35;;;1.02;;
75837;SDS011;64480;52.040;113.502;2023-04-01T02:39:52;9.20;;;2.40;;
75837;SDS011;64480;52.040;113.502;2023-04-01T02:42:55;17.85;;;2.40;;
75837;SDS011;64480;52.040;113.502;2023-04-01T02:45:58;11.65;;;2.42;;
75837;SDS011;64480;52.040;113.502;2023-04-01T02:49:02;6.97;;;1.60;;
75837;SDS011;64480;52.040;113.502;2023-04-01T02:52:08;3.05;;;1.52;;
75837;SDS011;64480;52.040;113.502;2023-04-01T02:55:12;9.05;;;1.80;;
75837;SDS011;64480;52.040;113.502;2023-04-01T02:58:16;8.00;;;2.75;;
75837;SDS011;64480;52.040;113.502;2023-04-01T03:01:20;7.45;;;1.73;;
75837;SDS011;64480;52.040;113.502;2023-04-01T03:04:24;4.03;;;1.05;;
75837;SDS011;64480;52.040;113.502;2023-04-01T03:07:32;4.07;;;1.02;;
75837;SDS011;64480;52.040;113.502;2023-04-01T03:10:39;5.35;;;2.00;;
75837;SDS011;64480;52.040;113.502;2023-04-01T03:13:43;9.15;;;1.98;;
75837;SDS011;64480;52.040;113.502;2023-04-01T03:16:48;19.40;;;2.80;;
75837;SDS011;64480;52.040;113.502;2023-04-01T03:19:52;4.82;;;1.65;;
75837;SDS011;64480;52.040;113.502;2023-04-01T03:22:55;4.45;;;1.00;;
75837;SDS011;64480;52.040;113.502;2023-04-01T03:26:01;2.60;;;1.13;;
75837;SDS011;64480;52.040;113.502;2023-04-01T03:29:04;3.42;;;1.48;;
75837;SDS011;64480;52.040;113.502;2023-04-01T03:32:10;6.07;;;1.70;;
75837;SDS011;64480;52.040;113.502;2023-04-01T03:35:14;3.85;;;1.90;;
75837;SDS011;64480;52.040;113.502;2023-04-01T03:38:19;15.98;;;1.75;;
75837;SDS011;64480;52.040;113.502;2023-04-01T03:41:24;14.10;;;1.83;;
75837;SDS011;64480;52.040;113.502;2023-04-01T03:44:31;4.85;;;1.27;;
75837;SDS011;64480;52.040;113.502;2023-04-01T03:47:35;25.65;;;3.03;;
75837;SDS011;64480;52.040;113.502;2023-04-01T03:50:39;3.95;;;1.80;;
75837;SDS011;64480;52.040;113.502;2023-04-01T03:53:42;7.28;;;2.53;;
75837;SDS011;64480;52.040;113.502;2023-04-01T03:56:46;5.65;;;1.90;;
75837;SDS011;64480;52.040;113.502;2023-04-01T03:59:50;2.80;;;0.82;;
75837;SDS011;64480;52.040;113.502;2023-04-01T04:02:53;9.10;;;1.65;;
75837;SDS011;64480;52.040;113.502;2023-04-01T04:06:04;10.70;;;1.92;;
75837;SDS011;64480;52.040;113.502;2023-04-01T04:09:26;15.05;;;2.45;;
75837;SDS011;64480;52.040;113.502;2023-04-01T04:12:30;10.13;;;1.92;;
75837;SDS011;64480;52.040;113.502;2023-04-01T04:15:33;2.65;;;0.60;;
75837;SDS011;64480;52.040;113.502;2023-04-01T04:18:37;9.57;;;1.98;;
75837;SDS011;64480;52.040;113.502;2023-04-01T04:21:41;4.95;;;1.60;;
75837;SDS011;64480;52.040;113.502;2023-04-01T04:24:44;16.55;;;2.65;;
75837;SDS011;64480;52.040;113.502;2023-04-01T04:27:48;7.30;;;1.10;;
75837;SDS011;64480;52.040;113.502;2023-04-01T04:30:52;6.80;;;0.70;;
75837;SDS011;64480;52.040;113.502;2023-04-01T04:33:56;7.63;;;1.88;;
75837;SDS011;64480;52.040;113.502;2023-04-01T04:37:01;3.80;;;1.52;;
75837;SDS011;64480;52.040;113.502;2023-04-01T04:40:09;5.43;;;1.48;;
75837;SDS011;64480;52.040;113.502;2023-04-01T04:43:14;15.35;;;2.72;;
75837;SDS011;64480;52.040;113.502;2023-04-01T04:46:18;20.50;;;2.60;;
75837;SDS011;64480;52.040;113.502;2023-04-01T04:49:27;13.85;;;4.20;;
75837;SDS011;64480;52.040;113.502;2023-04-01T04:52:31;13.55;;;1.98;;
75837;SDS011;64480;52.040;113.502;2023-04-01T04:55:34;8.77;;;1.27;;
75837;SDS011;64480;52.040;113.502;2023-04-01T04:58:56;8.73;;;1.30;;
75837;SDS011;64480;52.040;113.502;2023-04-01T05:02:10;13.27;;;2.00;;
75837;SDS011;64480;52.040;113.502;2023-04-01T05:05:14;14.57;;;2.63;;
75837;SDS011;64480;52.040;113.502;2023-04-01T05:08:18;7.07;;;1.42;;
75837;SDS011;64480;52.040;113.502;2023-04-01T05:11:21;3.08;;;1.27;;
75837;SDS011;64480;52.040;113.502;2023-04-01T05:14:25;25.52;;;2.30;;
75837;SDS011;64480;52.040;113.502;2023-04-01T05:17:37;1.80;;;0.60;;
75837;SDS011;64480;52.040;113.502;2023-04-01T05:21:33;9.52;;;1.70;;
75837;SDS011;64480;52.040;113.502;2023-04-01T05:24:37;9.30;;;1.85;;
75837;SDS011;64480;52.040;113.502;2023-04-01T05:27:42;3.40;;;1.00;;
75837;SDS011;64480;52.040;113.502;2023-04-01T05:30:57;8.30;;;2.08;;
75837;SDS011;64480;52.040;113.502;2023-04-01T05:34:08;10.15;;;2.03;;
75837;SDS011;64480;52.040;113.502;2023-04-01T05:37:21;11.95;;;3.08;;
75837;SDS011;64480;52.040;113.502;2023-04-01T05:40:25;14.88;;;2.55;;
75837;SDS011;64480;52.040;113.502;2023-04-01T05:43:29;14.40;;;2.90;;
75837;SDS011;64480;52.040;113.502;2023-04-01T05:46:52;8.07;;;1.95;;
75837;SDS011;64480;52.040;113.502;2023-04-01T05:49:58;8.88;;;2.13;;
75837;SDS011;64480;52.040;113.502;2023-04-01T05:53:01;14.63;;;3.25;;
75837;SDS011;64480;52.040;113.502;2023-04-01T05:56:05;11.20;;;2.38;;
75837;SDS011;64480;52.040;113.502;2023-04-01T05:59:18;5.15;;;1.10;;
75837;SDS011;64480;52.040;113.502;2023-04-01T06:02:25;13.65;;;4.82;;
75837;SDS011;64480;52.040;113.502;2023-04-01T06:05:30;5.93;;;2.00;;
75837;SDS011;64480;52.040;113.502;2023-04-01T06:08:42;6.80;;;2.80;;
75837;SDS011;64480;52.040;113.502;2023-04-01T06:15:45;10.07;;;2.47;;
75837;SDS011;64480;52.040;113.502;2023-04-01T06:22:23;5.72;;;1.17;;
75837;SDS011;64480;52.040;113.502;2023-04-01T06:32:00;22.38;;;2.17;;
75837;SDS011;64480;52.040;113.502;2023-04-01T06:56:44;5.40;;;1.45;;
75837;SDS011;64480;52.040;113.502;2023-04-01T07:00:04;7.10;;;1.45;;
75837;SDS011;64480;52.040;113.502;2023-04-01T07:03:40;7.07;;;2.20;;
75837;SDS011;64480;52.040;113.502;2023-04-01T07:07:05;5.40;;;1.55;;
75837;SDS011;64480;52.040;113.502;2023-04-01T07:10:38;3.67;;;0.70;;
75837;SDS011;64480;52.040;113.502;2023-04-01T07:15:38;20.23;;;2.08;;
75837;SDS011;64480;52.040;113.502;2023-04-01T07:22:48;9.52;;;1.75;;
75837;SDS011;64480;52.040;113.502;2023-04-01T07:26:28;7.30;;;1.52;;
75837;SDS011;64480;52.040;113.502;2023-04-01T07:29:43;6.63;;;1.30;;
75837;SDS011;64480;52.040;113.502;2023-04-01T07:35:54;5.63;;;1.45;;
75837;SDS011;64480;52.040;113.502;2023-04-01T07:56:49;11.75;;;1.42;;
75837;SDS011;64480;52.040;113.502;2023-04-01T08:07:10;11.70;;;3.33;;
75837;SDS011;64480;52.040;113.502;2023-04-01T08:10:50;5.90;;;1.70;;
75837;SDS011;64480;52.040;113.502;2023-04-01T08:18:33;7.50;;;1.90;;
75837;SDS011;64480;52.040;113.502;2023-04-01T08:21:42;15.45;;;1.45;;
75837;SDS011;64480;52.040;113.502;2023-04-01T08:24:50;4.38;;;1.00;;
75837;SDS011;64480;52.040;113.502;2023-04-01T08:35:14;25.90;;;3.30;;
75837;SDS011;64480;52.040;113.502;2023-04-01T08:55:22;3.00;;;1.08;;
75837;SDS011;64480;52.040;113.502;2023-04-01T09:15:34;16.05;;;2.53;;
75837;SDS011;64480;52.040;113.502;2023-04-01T09:18:47;5.35;;;1.98;;
75837;SDS011;64480;52.040;113.502;2023-04-01T09:25:58;6.00;;;2.15;;
75837;SDS011;64480;52.040;113.502;2023-04-01T09:36:07;18.42;;;3.45;;
75837;SDS011;64480;52.040;113.502;2023-04-01T09:40:09;21.55;;;5.18;;
75837;SDS011;64480;52.040;113.502;2023-04-01T09:43:42;6.63;;;2.17;;
75837;SDS011;64480;52.040;113.502;2023-04-01T09:47:15;12.15;;;2.90;;
75837;SDS011;64480;52.040;113.502;2023-04-01T10:04:33;12.70;;;3.83;;
75837;SDS011;64480;52.040;113.502;2023-04-01T10:11:37;17.13;;;4.13;;
75837;SDS011;64480;52.040;113.502;2023-04-01T10:22:11;20.50;;;4.85;;
75837;SDS011;64480;52.040;113.502;2023-04-01T10:40:44;15.20;;;5.22;;
75837;SDS011;64480;52.040;113.502;2023-04-01T10:57:58;16.73;;;5.57;;
75837;SDS011;64480;52.040;113.502;2023-04-01T11:27:21;18.15;;;4.38;;
75837;SDS011;64480;52.040;113.502;2023-04-01T11:34:23;26.23;;;5.05;;
75837;SDS011;64480;52.040;113.502;2023-04-01T11:48:29;21.83;;;6.22;;
75837;SDS011;64480;52.040;113.502;2023-04-01T11:51:57;22.80;;;6.38;;
75837;SDS011;64480;52.040;113.502;2023-04-01T11:55:06;19.60;;;5.85;;
75837;SDS011;64480;52.040;113.502;2023-04-01T11:58:40;17.67;;;5.32;;
75837;SDS011;64480;52.040;113.502;2023-04-01T12:06:11;14.80;;;5.50;;
75837;SDS011;64480;52.040;113.502;2023-04-01T12:09:31;28.65;;;8.75;;
75837;SDS011;64480;52.040;113.502;2023-04-01T12:13:02;24.50;;;8.65;;
75837;SDS011;64480;52.040;113.502;2023-04-01T12:47:51;10.07;;;3.80;;
75837;SDS011;64480;52.040;113.502;2023-04-01T13:19:58;8.82;;;3.95;;
75837;SDS011;64480;52.040;113.502;2023-04-01T13:30:18;44.20;;;5.50;;
75837;SDS011;64480;52.040;113.502;2023-04-01T13:43:37;16.88;;;4.03;;
75837;SDS011;64480;52.040;113.502;2023-04-01T13:47:01;14.23;;;3.70;;
75837;SDS011;64480;52.040;113.502;2023-04-01T14:29:11;11.23;;;4.40;;
75837;SDS011;64480;52.040;113.502;2023-04-01T14:46:22;9.73;;;3.78;;
75837;SDS011;64480;52.040;113.502;2023-04-01T14:52:40;9.68;;;3.03;;
75837;SDS011;64480;52.040;113.502;2023-04-01T14:55:53;5.60;;;1.65;;
75837;SDS011;64480;52.040;113.502;2023-04-01T14:58:57;3.00;;;1.70;;
75837;SDS011;64480;52.040;113.502;2023-04-01T15:02:03;4.07;;;2.20;;
75837;SDS011;64480;52.040;113.502;2023-04-01T15:05:31;8.60;;;2.40;;
75837;SDS011;64480;52.040;113.502;2023-04-01T15:19:23;3.10;;;1.65;;
75837;SDS011;64480;52.040;113.502;2023-04-01T15:29:26;6.00;;;2.35;;
75837;SDS011;64480;52.040;113.502;2023-04-01T15:39:49;6.10;;;2.08;;
75837;SDS011;64480;52.040;113.502;2023-04-01T15:49:43;2.75;;;1.33;;
75837;SDS011;64480;52.040;113.502;2023-04-01T15:56:44;18.40;;;3.40;;
75837;SDS011;64480;52.040;113.502;2023-04-01T16:00:17;3.67;;;1.63;;
75837;SDS011;64480;52.040;113.502;2023-04-01T16:10:19;5.25;;;2.38;;
75837;SDS011;64480;52.040;113.502;2023-04-01T16:13:54;3.72;;;1.67;;
75837;SDS011;64480;52.040;113.502;2023-04-01T16:23:25;18.65;;;2.25;;
75837;SDS011;64480;52.040;113.502;2023-04-01T16:27:00;2.63;;;1.25;;
75837;SDS011;64480;52.040;113.502;2023-04-01T16:34:16;2.95;;;1.48;;
75837;SDS011;64480;52.040;113.502;2023-04-01T16:37:34;3.22;;;1.77;;
75837;SDS011;64480;52.040;113.502;2023-04-01T16:40:57;3.83;;;1.52;;
75837;SDS011;64480;52.040;113.502;2023-04-01T16:44:24;3.45;;;1.23;;
75837;SDS011;64480;52.040;113.502;2023-04-01T16:47:30;4.13;;;1.60;;
75837;SDS011;64480;52.040;113.502;2023-04-01T16:51:00;5.18;;;1.40;;
75837;SDS011;64480;52.040;113.502;2023-04-01T16:54:26;7.50;;;1.50;;
75837;SDS011;64480;52.040;113.502;2023-04-01T16:57:50;3.20;;;1.45;;
75837;SDS011;64480;52.040;113.502;2023-04-01T17:01:00;5.18;;;1.67;;
75837;SDS011;64480;52.040;113.502;2023-04-01T17:04:30;8.95;;;2.00;;
75837;SDS011;64480;52.040;113.502;2023-04-01T17:07:44;12.02;;;3.00;;
75837;SDS011;64480;52.040;113.502;2023-04-01T17:11:18;5.65;;;2.00;;
75837;SDS011;64480;52.040;113.502;2023-04-01T17:17:43;4.45;;;1.30;;
75837;SDS011;64480;52.040;113.502;2023-04-01T17:27:41;5.47;;;2.15;;
75837;SDS011;64480;52.040;113.502;2023-04-01T17:31:10;4.15;;;2.22;;
75837;SDS011;64480;52.040;113.502;2023-04-01T17:34:26;7.50;;;2.63;;
75837;SDS011;64480;52.040;113.502;2023-04-01T17:44:16;7.28;;;2.90;;
75837;SDS011;64480;52.040;113.502;2023-04-01T17:54:21;6.03;;;2.90;;
75837;SDS011;64480;52.040;113.502;2023-04-01T18:01:09;10.95;;;2.92;;
75837;SDS011;64480;52.040;113.502;2023-04-01T18:07:51;5.40;;;1.90;;
75837;SDS011;64480;52.040;113.502;2023-04-01T18:11:09;7.72;;;3.35;;
75837;SDS011;64480;52.040;113.502;2023-04-01T18:28:14;6.57;;;2.58;;
75837;SDS011;64480;52.040;113.502;2023-04-01T18:31:34;8.15;;;2.92;;
75837;SDS011;64480;52.040;113.502;2023-04-01T18:38:29;12.95;;;4.05;;
75837;SDS011;64480;52.040;113.502;2023-04-01T18:48:52;10.00;;;3.70;;
75837;SDS011;64480;52.040;113.502;2023-04-01T18:52:10;12.43;;;4.28;;
75837;SDS011;64480;52.040;113.502;2023-04-01T18:55:29;8.75;;;2.60;;
75837;SDS011;64480;52.040;113.502;2023-04-01T18:59:26;4.93;;;1.80;;
75837;SDS011;64480;52.040;113.502;2023-04-01T19:02:34;12.10;;;3.28;;
75837;SDS011;64480;52.040;113.502;2023-04-01T19:05:44;7.07;;;3.17;;
75837;SDS011;64480;52.040;113.502;2023-04-01T19:08:51;8.50;;;3.08;;
75837;SDS011;64480;52.040;113.502;2023-04-01T19:15:46;8.02;;;3.60;;
75837;SDS011;64480;52.040;113.502;2023-04-01T19:29:40;8.57;;;2.80;;
75837;SDS011;64480;52.040;113.502;2023-04-01T19:42:54;4.28;;;2.10;;
75837;SDS011;64480;52.040;113.502;2023-04-01T19:46:21;4.88;;;1.88;;
75837;SDS011;64480;52.040;113.502;2023-04-01T19:52:56;10.13;;;2.13;;
75837;SDS011;64480;52.040;113.502;2023-04-01T19:56:07;7.85;;;2.30;;
75837;SDS011;64480;52.040;113.502;2023-04-01T20:09:04;6.30;;;2.05;;
75837;SDS011;64480;52.040;113.502;2023-04-01T20:15:55;4.53;;;1.70;;
75837;SDS011;64480;52.040;113.502;2023-04-01T20:19:06;4.97;;;1.45;;
75837;SDS011;64480;52.040;113.502;2023-04-01T20:38:48;1.92;;;1.08;;
75837;SDS011;64480;52.040;113.502;2023-04-01T20:49:15;1.42;;;0.50;;
75837;SDS011;64480;52.040;113.502;2023-04-01T20:52:41;6.03;;;1.92;;
75837;SDS011;64480;52.040;113.502;2023-04-01T20:55:56;10.48;;;1.45;;
75837;SDS011;64480;52.040;113.502;2023-04-01T21:09:37;2.50;;;0.73;;
75837;SDS011;64480;52.040;113.502;2023-04-01T21:12:53;6.95;;;1.77;;
75837;SDS011;64480;52.040;113.502;2023-04-01T21:19:24;3.92;;;1.65;;
75837;SDS011;64480;52.040;113.502;2023-04-01T21:36:35;2.72;;;1.25;;
75837;SDS011;64480;52.040;113.502;2023-04-01T21:40:37;4.00;;;1.45;;
75837;SDS011;64480;52.040;113.502;2023-04-01T21:43:36;2.38;;;1.67;;
75837;SDS011;64480;52.040;113.502;2023-04-01T21:47:05;1.27;;;0.80;;
75837;SDS011;64480;52.040;113.502;2023-04-01T21:57:36;3.05;;;1.05;;
75837;SDS011;64480;52.040;113.502;2023-04-01T22:04:44;5.47;;;1.77;;
75837;SDS011;64480;52.040;113.502;2023-04-01T22:11:31;3.55;;;1.80;;
75837;SDS011;64480;52.040;113.502;2023-04-01T22:18:29;7.57;;;2.17;;
75837;SDS011;64480;52.040;113.502;2023-04-01T22:21:43;4.03;;;1.70;;
75837;SDS011;64480;52.040;113.502;2023-04-01T22:32:06;7.40;;;2.38;;
75837;SDS011;64480;52.040;113.502;2023-04-01T22:35:33;4.15;;;1.42;;
75837;SDS011;64480;52.040;113.502;2023-04-01T22:39:04;4.15;;;2.15;;
75837;SDS011;64480;52.040;113.502;2023-04-01T22:42:28;7.97;;;2.05;;
75837;SDS011;64480;52.040;113.502;2023-04-01T22:48:46;4.68;;;2.40;;
75837;SDS011;64480;52.040;113.502;2023-04-01T22:51:57;4.65;;;1.50;;
75837;SDS011;64480;52.040;113.502;2023-04-01T22:58:35;2.10;;;1.10;;
75837;SDS011;64480;52.040;113.502;2023-04-01T23:01:56;5.28;;;1.92;;
75837;SDS011;64480;52.040;113.502;2023-04-01T23:05:03;9.77;;;1.85;;
75837;SDS011;64480;52.040;113.502;2023-04-01T23:08:52;9.35;;;2.30;;
75837;SDS011;64480;52.040;113.502;2023-04-01T23:14:59;9.02;;;1.70;;
75837;SDS011;64480;52.040;113.502;2023-04-01T23:18:05;8.32;;;2.83;;
75837;SDS011;64480;52.040;113.502;2023-04-01T23:21:20;15.30;;;1.77;;
75837;SDS011;64480;52.040;113.502;2023-04-01T23:24:30;3.25;;;1.17;;
75837;SDS011;64480;52.040;113.502;2023-04-01T23:27:43;6.03;;;1.70;;
75837;SDS011;64480;52.040;113.502;2023-04-01T23:30:51;2.97;;;1.00;;
75837;SDS011;64480;52.040;113.502;2023-04-01T23:33:55;15.27;;;2.22;;
75837;SDS011;64480;52.040;113.502;2023-04-01T23:37:12;2.33;;;1.23;;
75837;SDS011;64480;52.040;113.502;2023-04-01T23:40:18;6.65;;;1.08;;
75837;SDS011;64480;52.040;113.502;2023-04-01T23:43:23;3.88;;;1.27;;
75837;SDS011;64480;52.040;113.502;2023-04-01T23:46:28;3.80;;;1.00;;
75837;SDS011;64480;52.040;113.502;2023-04-01T23:49:38;3.05;;;1.30;;
75837;SDS011;64480;52.040;113.502;2023-04-01T23:52:47;3.17;;;0.70;;
75837;SDS011;64480;52.040;113.502;2023-04-01T23:55:55;2.25;;;1.02;;
75837;SDS011;64480;52.040;113.502;2023-04-01T23:58:58;1.55;;;0.93;;
